NCAR-RAP Real-Time Weather Data

Output produced by METARs form (24 April 2018  16:21 UTC)
found at http://weather.rap.ucar.edu/surface/
 
RJSF 241100Z 17007KT 4000 -SHRA BR FEW006 BKN025 BKN030 14/14 Q1010
RJSF 241000Z 17006KT 3500 -SHRA BR FEW007 BKN025 BKN050 14/14 Q1010
RJSF 240900Z 16003KT 2500 -SHRA BR FEW008 SCT020 BKN050 14/14 Q1010
RJSF 240800Z 16004KT 2500 -SHRA BR FEW008 BKN020 BKN030 14/14 Q1010
RJSF 240739Z 16003KT 2500 -SHRA BR FEW008 SCT015 BKN020 14/14 Q1010 RMK 1ST008 3CU015 7CU020 A2984
RJSF 240712Z 16003KT 2000 -SHRA BR FEW008 BKN010 BKN020 14/14 Q1011 RMK 2ST008 5ST010 7CU020 A2985
RJSF 240700Z 17005KT 3000 -SHRA BR FEW009 BKN015 BKN020 14/14 Q1011
RJSF 240641Z 17005KT 3000 -SHRA BR FEW009 BKN015 BKN020 14/14 Q1011 RMK 1ST009 5CU015 7CU020 A2987
RJSF 240600Z 17005KT 4000 -SHRA BR FEW009 BKN015 BKN020 14/14 Q1011
RJSF 240500Z 19004KT 160V220 7000 -SHRA FEW010 BKN015 BKN020 14/14 Q1012
RJSF 240400Z 18005KT 7000 FEW006 SCT010 BKN015 14/14 Q1013
RJSF 240308Z 19009KT 8000 -SHRA FEW007 BKN008 BKN010 13/13 Q1014 RMK 1ST007 5ST008 7CU010 A2995
RJSF 240300Z 18007KT 8000 -SHRA FEW007 SCT008 BKN010 14/14 Q1014
RJSF 240200Z 20009KT 9999 FEW005 SCT008 BKN010 14/14 Q1015
RJSF 240136Z 20007KT 8000 FEW003 SCT006 BKN008 13/13 Q1015 RMK 1ST003 3ST006 6ST008 A2998
RJSF 240100Z 19006KT 150V230 5000 -RA BR FEW003 SCT004 BKN005 13/13 Q1016
RJSF 240040Z 19007KT 5000 -RA BR FEW003 SCT004 BKN005 12/12 Q1016 RMK 1ST003 4ST004 7ST005 A3001
RJSF 240028Z 19006KT 160V220 4000 -RA BR FEW002 SCT003 BKN004 12/12 Q1016 RMK 1ST002 4ST003 7ST004 A3001
RJSF 240000Z 19005KT 160V220 4000 -RA BR FEW002 BKN003 BKN004 12/12 Q1016
RJSF 232336Z 19004KT 160V220 3000 -RA BCFG BR FEW003 BKN004 BKN005 12/12 Q1017 RMK 1ST003 5ST004 7ST005 A3003
RJSF 232319Z 18004KT 3000 -RA BCFG BR FEW002 BKN003 BKN004 11/11 Q1017 RMK 1ST002 5ST003 7ST004 A3004
RJSF 232300Z 17003KT 150V210 2000 -RA BCFG BR FEW002 BKN003 BKN004 11/11 Q1017
RJSF 232200Z 18003KT 2000 -RA BCFG BR FEW002 BKN003 10/10 Q1017
RJSF 232140Z VRB02KT 2000 -RA BCFG BR FEW001 SCT002 BKN003 10/10 Q1017 RMK 1ST001 3ST002 7ST003 A3005
RJSF 231100Z VRB02KT 9999 BKN015 BKN040 11/11 Q1021
RJSF 231000Z 13003KT 100V170 9999 SCT015 BKN035 BKN045 11/11 Q1021
RJSF 230900Z 08005KT 040V130 9999 FEW020 BKN025 BKN035 12/12 Q1021
RJSF 230800Z 07007KT 030V110 9999 SCT015 BKN020 BKN030 12/12 Q1020
RJSF 230700Z 11007KT 040V140 9999 FEW015 BKN020 BKN025 13/13 Q1021
RJSF 230600Z 09005KT 030V120 9999 FEW015 BKN020 BKN025 14/14 Q1021
RJSF 230500Z 07005KT 030V110 9999 FEW015 BKN020 BKN030 13/13 Q1021
RJSF 230400Z 06006KT 020V110 9999 FEW015 BKN020 BKN025 13/13 Q1022
RJSF 230300Z 01010KT 9999 FEW020 BKN022 BKN025 13/13 Q1022
RJSF 230200Z 35011KT 9999 FEW015 SCT020 BKN023 14/14 Q1022
RJSF 230100Z 36011KT 9999 FEW015 SCT018 BKN020 13/13 Q1023
RJSF 230000Z 35006KT 320V030 9999 FEW010 BKN018 BKN020 13/13 Q1023
RJSF 222300Z 34008KT 8000 FEW009 SCT010 BKN015 11/11 Q1022
RJSF 222200Z 02005KT 6000 FEW006 SCT007 BKN180 10/10 Q1022
RJSF 222140Z 36007KT 5000 BR FEW006 SCT008 BKN180 10/10 Q1022 RMK 1ST006 3ST008 6AC180 A3019
RJSF 221100Z 13003KT 090V230 CAVOK 19/03 Q1018
RJSF 221000Z 11007KT 040V130 CAVOK 21/02 Q1017
RJSF 220900Z 13008KT 110V170 CAVOK 23/04 Q1017
RJSF 220800Z 33007KT 280V360 CAVOK 26/02 Q1016
RJSF 220700Z 36009KT CAVOK 26/03 Q1016
RJSF 220600Z 01009KT CAVOK 26/02 Q1016
RJSF 220500Z 03008KT CAVOK 27/M00 Q1016